sensor_id;sensor_type;location;lat;lon;timestamp;P1;durP1;ratioP1;P2;durP2;ratioP2
46561;SDS011;32289;42.688;23.330;2023-02-10T00:00:44;6.90;;;3.10;;
46561;SDS011;32289;42.688;23.330;2023-02-10T00:04:24;7.68;;;4.65;;
46561;SDS011;32289;42.688;23.330;2023-02-10T00:08:05;7.07;;;3.92;;
46561;SDS011;32289;42.688;23.330;2023-02-10T00:11:46;5.32;;;2.65;;
46561;SDS011;32289;42.688;23.330;2023-02-10T00:15:42;8.68;;;2.65;;
46561;SDS011;32289;42.688;23.330;2023-02-10T00:19:24;11.77;;;3.60;;
46561;SDS011;32289;42.688;23.330;2023-02-10T00:23:05;15.00;;;4.25;;
46561;SDS011;32289;42.688;23.330;2023-02-10T00:26:47;8.43;;;2.80;;
46561;SDS011;32289;42.688;23.330;2023-02-10T00:30:29;8.02;;;3.38;;
46561;SDS011;32289;42.688;23.330;2023-02-10T00:34:11;4.95;;;2.45;;
46561;SDS011;32289;42.688;23.330;2023-02-10T00:37:56;3.55;;;2.28;;
46561;SDS011;32289;42.688;23.330;2023-02-10T00:41:37;6.85;;;3.80;;
46561;SDS011;32289;42.688;23.330;2023-02-10T00:45:20;8.02;;;3.38;;
46561;SDS011;32289;42.688;23.330;2023-02-10T00:49:01;7.68;;;3.85;;
46561;SDS011;32289;42.688;23.330;2023-02-10T00:52:41;7.65;;;3.92;;
46561;SDS011;32289;42.688;23.330;2023-02-10T00:56:22;9.35;;;4.50;;
46561;SDS011;32289;42.688;23.330;2023-02-10T01:00:05;5.35;;;2.55;;
46561;SDS011;32289;42.688;23.330;2023-02-10T01:03:46;6.18;;;3.22;;
46561;SDS011;32289;42.688;23.330;2023-02-10T01:07:27;9.43;;;4.93;;
46561;SDS011;32289;42.688;23.330;2023-02-10T01:11:09;6.28;;;4.25;;
46561;SDS011;32289;42.688;23.330;2023-02-10T01:14:51;5.60;;;3.17;;
46561;SDS011;32289;42.688;23.330;2023-02-10T01:18:32;14.82;;;4.45;;
46561;SDS011;32289;42.688;23.330;2023-02-10T01:22:12;11.02;;;3.35;;
46561;SDS011;32289;42.688;23.330;2023-02-10T01:25:53;10.13;;;3.13;;
46561;SDS011;32289;42.688;23.330;2023-02-10T01:29:34;9.63;;;3.92;;
46561;SDS011;32289;42.688;23.330;2023-02-10T01:33:14;6.45;;;4.60;;
46561;SDS011;32289;42.688;23.330;2023-02-10T01:36:55;9.43;;;3.47;;
46561;SDS011;32289;42.688;23.330;2023-02-10T01:40:36;7.20;;;3.92;;
46561;SDS011;32289;42.688;23.330;2023-02-10T01:48:00;9.65;;;3.13;;
46561;SDS011;32289;42.688;23.330;2023-02-10T01:51:43;12.43;;;3.22;;
46561;SDS011;32289;42.688;23.330;2023-02-10T01:55:45;12.25;;;3.63;;
46561;SDS011;32289;42.688;23.330;2023-02-10T01:59:30;4.18;;;3.50;;
46561;SDS011;32289;42.688;23.330;2023-02-10T02:03:14;6.72;;;3.53;;
46561;SDS011;32289;42.688;23.330;2023-02-10T02:06:55;8.13;;;3.53;;
46561;SDS011;32289;42.688;23.330;2023-02-10T02:10:56;15.90;;;4.75;;
46561;SDS011;32289;42.688;23.330;2023-02-10T02:19:30;8.98;;;4.70;;
46561;SDS011;32289;42.688;23.330;2023-02-10T02:35:24;14.10;;;7.43;;
46561;SDS011;32289;42.688;23.330;2023-02-10T02:39:15;14.35;;;5.30;;
46561;SDS011;32289;42.688;23.330;2023-02-10T02:42:56;13.80;;;5.82;;
46561;SDS011;32289;42.688;23.330;2023-02-10T02:46:44;17.88;;;8.70;;
46561;SDS011;32289;42.688;23.330;2023-02-10T02:55:41;22.98;;;7.18;;
46561;SDS011;32289;42.688;23.330;2023-02-10T03:03:32;24.27;;;5.93;;
46561;SDS011;32289;42.688;23.330;2023-02-10T03:07:14;13.43;;;7.03;;
46561;SDS011;32289;42.688;23.330;2023-02-10T03:10:55;14.82;;;7.18;;
46561;SDS011;32289;42.688;23.330;2023-02-10T03:14:36;5.32;;;4.57;;
46561;SDS011;32289;42.688;23.330;2023-02-10T03:18:16;13.45;;;5.70;;
46561;SDS011;32289;42.688;23.330;2023-02-10T03:21:57;11.70;;;5.82;;
46561;SDS011;32289;42.688;23.330;2023-02-10T03:25:38;15.20;;;4.88;;
46561;SDS011;32289;42.688;23.330;2023-02-10T03:29:18;6.55;;;3.90;;
46561;SDS011;32289;42.688;23.330;2023-02-10T03:32:59;10.88;;;7.28;;
46561;SDS011;32289;42.688;23.330;2023-02-10T03:36:40;4.82;;;3.05;;
46561;SDS011;32289;42.688;23.330;2023-02-10T03:40:20;11.02;;;6.18;;
46561;SDS011;32289;42.688;23.330;2023-02-10T03:44:01;13.88;;;5.63;;
46561;SDS011;32289;42.688;23.330;2023-02-10T03:47:42;10.65;;;4.95;;
46561;SDS011;32289;42.688;23.330;2023-02-10T03:51:23;9.07;;;4.82;;
46561;SDS011;32289;42.688;23.330;2023-02-10T03:55:03;19.42;;;6.43;;
46561;SDS011;32289;42.688;23.330;2023-02-10T03:58:44;11.13;;;5.13;;
46561;SDS011;32289;42.688;23.330;2023-02-10T04:02:25;12.70;;;6.18;;
46561;SDS011;32289;42.688;23.330;2023-02-10T04:06:06;14.48;;;6.28;;
46561;SDS011;32289;42.688;23.330;2023-02-10T04:09:47;6.20;;;3.90;;
46561;SDS011;32289;42.688;23.330;2023-02-10T04:13:28;13.27;;;7.22;;
46561;SDS011;32289;42.688;23.330;2023-02-10T04:17:09;16.10;;;7.22;;
46561;SDS011;32289;42.688;23.330;2023-02-10T04:20:50;11.05;;;6.90;;
46561;SDS011;32289;42.688;23.330;2023-02-10T04:24:30;12.18;;;5.35;;
46561;SDS011;32289;42.688;23.330;2023-02-10T04:28:11;12.05;;;6.38;;
46561;SDS011;32289;42.688;23.330;2023-02-10T04:31:52;15.07;;;6.35;;
46561;SDS011;32289;42.688;23.330;2023-02-10T04:35:32;9.57;;;5.20;;
46561;SDS011;32289;42.688;23.330;2023-02-10T04:39:13;14.93;;;6.35;;
46561;SDS011;32289;42.688;23.330;2023-02-10T04:42:54;14.85;;;6.00;;
46561;SDS011;32289;42.688;23.330;2023-02-10T04:46:34;8.25;;;4.82;;
46561;SDS011;32289;42.688;23.330;2023-02-10T04:50:15;8.20;;;5.13;;
46561;SDS011;32289;42.688;23.330;2023-02-10T04:53:56;15.68;;;4.75;;
46561;SDS011;32289;42.688;23.330;2023-02-10T04:57:37;9.05;;;6.68;;
46561;SDS011;32289;42.688;23.330;2023-02-10T05:01:17;9.93;;;4.65;;
46561;SDS011;32289;42.688;23.330;2023-02-10T05:04:58;3.47;;;2.78;;
46561;SDS011;32289;42.688;23.330;2023-02-10T05:08:39;9.07;;;5.22;;
46561;SDS011;32289;42.688;23.330;2023-02-10T05:12:21;5.60;;;3.78;;
46561;SDS011;32289;42.688;23.330;2023-02-10T05:16:02;6.57;;;4.13;;
46561;SDS011;32289;42.688;23.330;2023-02-10T05:19:43;14.85;;;6.45;;
46561;SDS011;32289;42.688;23.330;2023-02-10T05:23:24;20.85;;;6.50;;
46561;SDS011;32289;42.688;23.330;2023-02-10T05:27:05;7.32;;;4.95;;
46561;SDS011;32289;42.688;23.330;2023-02-10T05:30:46;9.93;;;6.05;;
46561;SDS011;32289;42.688;23.330;2023-02-10T05:34:28;13.93;;;5.65;;
46561;SDS011;32289;42.688;23.330;2023-02-10T05:38:08;8.13;;;5.95;;
46561;SDS011;32289;42.688;23.330;2023-02-10T05:41:50;13.48;;;3.92;;
46561;SDS011;32289;42.688;23.330;2023-02-10T05:45:31;10.63;;;6.22;;
46561;SDS011;32289;42.688;23.330;2023-02-10T05:49:12;7.57;;;5.13;;
46561;SDS011;32289;42.688;23.330;2023-02-10T05:52:53;18.30;;;8.18;;
46561;SDS011;32289;42.688;23.330;2023-02-10T05:56:34;11.15;;;5.75;;
46561;SDS011;32289;42.688;23.330;2023-02-10T06:00:16;17.23;;;7.65;;
46561;SDS011;32289;42.688;23.330;2023-02-10T06:03:57;36.55;;;8.27;;
46561;SDS011;32289;42.688;23.330;2023-02-10T06:07:38;10.63;;;6.63;;
46561;SDS011;32289;42.688;23.330;2023-02-10T06:11:19;18.63;;;8.30;;
46561;SDS011;32289;42.688;23.330;2023-02-10T06:15:00;23.67;;;9.38;;
46561;SDS011;32289;42.688;23.330;2023-02-10T06:18:40;23.58;;;8.90;;
46561;SDS011;32289;42.688;23.330;2023-02-10T06:22:22;21.33;;;11.27;;
46561;SDS011;32289;42.688;23.330;2023-02-10T06:26:02;17.92;;;8.75;;
46561;SDS011;32289;42.688;23.330;2023-02-10T06:29:43;16.70;;;7.57;;
46561;SDS011;32289;42.688;23.330;2023-02-10T06:33:24;20.10;;;9.10;;
46561;SDS011;32289;42.688;23.330;2023-02-10T06:37:05;16.55;;;7.10;;
46561;SDS011;32289;42.688;23.330;2023-02-10T06:40:45;11.43;;;7.63;;
46561;SDS011;32289;42.688;23.330;2023-02-10T06:44:26;23.38;;;7.88;;
46561;SDS011;32289;42.688;23.330;2023-02-10T06:48:07;30.27;;;12.18;;
46561;SDS011;32289;42.688;23.330;2023-02-10T06:51:48;16.65;;;7.32;;
46561;SDS011;32289;42.688;23.330;2023-02-10T06:55:30;25.65;;;9.48;;
46561;SDS011;32289;42.688;23.330;2023-02-10T06:59:13;28.33;;;11.23;;
46561;SDS011;32289;42.688;23.330;2023-02-10T07:02:53;27.20;;;10.65;;
46561;SDS011;32289;42.688;23.330;2023-02-10T07:06:34;22.42;;;10.50;;
46561;SDS011;32289;42.688;23.330;2023-02-10T07:10:15;23.48;;;9.82;;
46561;SDS011;32289;42.688;23.330;2023-02-10T07:13:57;36.60;;;10.82;;
46561;SDS011;32289;42.688;23.330;2023-02-10T07:17:38;26.30;;;10.48;;
46561;SDS011;32289;42.688;23.330;2023-02-10T07:21:18;29.63;;;10.57;;
46561;SDS011;32289;42.688;23.330;2023-02-10T07:24:59;19.92;;;9.43;;
46561;SDS011;32289;42.688;23.330;2023-02-10T07:28:40;27.45;;;12.55;;
46561;SDS011;32289;42.688;23.330;2023-02-10T07:32:21;22.48;;;9.13;;
46561;SDS011;32289;42.688;23.330;2023-02-10T07:36:01;22.77;;;8.15;;
46561;SDS011;32289;42.688;23.330;2023-02-10T07:39:44;20.42;;;10.23;;
46561;SDS011;32289;42.688;23.330;2023-02-10T07:43:25;20.08;;;6.93;;
46561;SDS011;32289;42.688;23.330;2023-02-10T07:47:06;21.33;;;8.75;;
46561;SDS011;32289;42.688;23.330;2023-02-10T07:50:47;17.70;;;9.77;;
46561;SDS011;32289;42.688;23.330;2023-02-10T07:54:27;23.02;;;11.55;;
46561;SDS011;32289;42.688;23.330;2023-02-10T07:58:09;25.13;;;11.85;;
46561;SDS011;32289;42.688;23.330;2023-02-10T08:01:50;27.48;;;12.13;;
46561;SDS011;32289;42.688;23.330;2023-02-10T08:05:31;20.88;;;10.05;;
46561;SDS011;32289;42.688;23.330;2023-02-10T08:09:15;28.25;;;11.65;;
46561;SDS011;32289;42.688;23.330;2023-02-10T08:12:57;24.33;;;11.75;;
46561;SDS011;32289;42.688;23.330;2023-02-10T08:16:37;24.17;;;11.65;;
46561;SDS011;32289;42.688;23.330;2023-02-10T08:20:18;30.33;;;13.48;;
46561;SDS011;32289;42.688;23.330;2023-02-10T08:23:59;28.40;;;12.45;;
46561;SDS011;32289;42.688;23.330;2023-02-10T08:27:39;36.00;;;12.88;;
46561;SDS011;32289;42.688;23.330;2023-02-10T08:31:20;26.27;;;11.52;;
46561;SDS011;32289;42.688;23.330;2023-02-10T08:35:02;29.08;;;12.18;;
46561;SDS011;32289;42.688;23.330;2023-02-10T08:38:43;35.38;;;13.20;;
46561;SDS011;32289;42.688;23.330;2023-02-10T08:42:24;35.55;;;12.13;;
46561;SDS011;32289;42.688;23.330;2023-02-10T08:46:05;29.67;;;12.50;;
46561;SDS011;32289;42.688;23.330;2023-02-10T08:49:46;26.88;;;12.43;;
46561;SDS011;32289;42.688;23.330;2023-02-10T08:53:27;26.38;;;12.73;;
46561;SDS011;32289;42.688;23.330;2023-02-10T08:57:09;30.83;;;12.30;;
46561;SDS011;32289;42.688;23.330;2023-02-10T09:00:51;27.77;;;11.55;;
46561;SDS011;32289;42.688;23.330;2023-02-10T09:04:31;27.17;;;10.95;;
46561;SDS011;32289;42.688;23.330;2023-02-10T09:08:12;33.03;;;11.77;;
46561;SDS011;32289;42.688;23.330;2023-02-10T09:11:53;24.50;;;11.68;;
46561;SDS011;32289;42.688;23.330;2023-02-10T09:15:37;25.27;;;10.43;;
46561;SDS011;32289;42.688;23.330;2023-02-10T09:19:19;30.20;;;10.63;;
46561;SDS011;32289;42.688;23.330;2023-02-10T09:23:00;30.63;;;12.45;;
46561;SDS011;32289;42.688;23.330;2023-02-10T09:26:43;29.50;;;11.63;;
46561;SDS011;32289;42.688;23.330;2023-02-10T09:30:24;28.85;;;11.40;;
46561;SDS011;32289;42.688;23.330;2023-02-10T09:34:06;27.48;;;11.43;;
46561;SDS011;32289;42.688;23.330;2023-02-10T09:37:47;27.85;;;11.05;;
46561;SDS011;32289;42.688;23.330;2023-02-10T09:45:16;28.00;;;11.13;;
46561;SDS011;32289;42.688;23.330;2023-02-10T09:56:42;24.50;;;12.15;;
46561;SDS011;32289;42.688;23.330;2023-02-10T10:00:25;29.30;;;11.73;;
46561;SDS011;32289;42.688;23.330;2023-02-10T10:04:14;23.20;;;10.57;;
46561;SDS011;32289;42.688;23.330;2023-02-10T10:07:57;18.08;;;8.60;;
46561;SDS011;32289;42.688;23.330;2023-02-10T10:15:31;19.38;;;11.30;;
46561;SDS011;32289;42.688;23.330;2023-02-10T10:19:26;21.10;;;10.65;;
46561;SDS011;32289;42.688;23.330;2023-02-10T10:27:11;27.48;;;10.95;;
46561;SDS011;32289;42.688;23.330;2023-02-10T10:30:58;20.25;;;11.43;;
46561;SDS011;32289;42.688;23.330;2023-02-10T10:34:51;20.77;;;11.25;;
46561;SDS011;32289;42.688;23.330;2023-02-10T10:38:35;21.92;;;10.00;;
46561;SDS011;32289;42.688;23.330;2023-02-10T10:46:39;20.42;;;10.65;;
46561;SDS011;32289;42.688;23.330;2023-02-10T10:50:25;22.60;;;11.67;;
46561;SDS011;32289;42.688;23.330;2023-02-10T10:54:11;18.33;;;9.68;;
46561;SDS011;32289;42.688;23.330;2023-02-10T10:57:56;23.25;;;11.60;;
46561;SDS011;32289;42.688;23.330;2023-02-10T11:01:41;25.45;;;10.27;;
46561;SDS011;32289;42.688;23.330;2023-02-10T11:05:33;17.38;;;9.43;;
46561;SDS011;32289;42.688;23.330;2023-02-10T11:09:30;22.92;;;10.70;;
46561;SDS011;32289;42.688;23.330;2023-02-10T11:13:22;22.13;;;10.43;;
46561;SDS011;32289;42.688;23.330;2023-02-10T11:17:17;16.52;;;9.85;;
46561;SDS011;32289;42.688;23.330;2023-02-10T11:21:14;23.05;;;10.60;;
46561;SDS011;32289;42.688;23.330;2023-02-10T11:24:56;21.35;;;10.02;;
46561;SDS011;32289;42.688;23.330;2023-02-10T11:28:39;22.70;;;9.85;;
46561;SDS011;32289;42.688;23.330;2023-02-10T11:32:25;24.38;;;9.50;;
46561;SDS011;32289;42.688;23.330;2023-02-10T11:36:09;19.40;;;9.57;;
46561;SDS011;32289;42.688;23.330;2023-02-10T11:39:53;24.50;;;10.68;;
46561;SDS011;32289;42.688;23.330;2023-02-10T11:43:43;24.25;;;10.07;;
46561;SDS011;32289;42.688;23.330;2023-02-10T11:47:28;21.05;;;10.50;;
46561;SDS011;32289;42.688;23.330;2023-02-10T11:51:14;15.60;;;9.18;;
46561;SDS011;32289;42.688;23.330;2023-02-10T11:54:58;18.15;;;8.50;;
46561;SDS011;32289;42.688;23.330;2023-02-10T12:54:51;18.45;;;8.52;;
46561;SDS011;32289;42.688;23.330;2023-02-10T12:58:41;17.20;;;8.80;;
46561;SDS011;32289;42.688;23.330;2023-02-10T13:02:27;19.70;;;9.07;;
46561;SDS011;32289;42.688;23.330;2023-02-10T13:10:14;24.13;;;8.77;;
46561;SDS011;32289;42.688;23.330;2023-02-10T13:14:16;21.95;;;9.98;;
46561;SDS011;32289;42.688;23.330;2023-02-10T13:18:49;17.85;;;7.88;;
46561;SDS011;32289;42.688;23.330;2023-02-10T13:22:14;22.52;;;8.80;;
46561;SDS011;32289;42.688;23.330;2023-02-10T13:41:46;82.10;;;28.40;;
46561;SDS011;32289;42.688;23.330;2023-02-10T13:45:32;19.25;;;9.60;;
46561;SDS011;32289;42.688;23.330;2023-02-10T13:49:16;37.95;;;10.52;;
46561;SDS011;32289;42.688;23.330;2023-02-10T13:53:00;25.77;;;11.50;;
46561;SDS011;32289;42.688;23.330;2023-02-10T13:56:51;15.30;;;9.02;;
46561;SDS011;32289;42.688;23.330;2023-02-10T14:00:43;25.35;;;9.50;;
46561;SDS011;32289;42.688;23.330;2023-02-10T14:04:26;21.02;;;9.30;;
46561;SDS011;32289;42.688;23.330;2023-02-10T14:08:14;24.25;;;9.98;;
46561;SDS011;32289;42.688;23.330;2023-02-10T14:12:19;23.48;;;11.90;;
46561;SDS011;32289;42.688;23.330;2023-02-10T14:16:06;29.90;;;10.18;;
46561;SDS011;32289;42.688;23.330;2023-02-10T14:19:53;25.35;;;10.82;;
46561;SDS011;32289;42.688;23.330;2023-02-10T14:23:34;27.35;;;11.82;;
46561;SDS011;32289;42.688;23.330;2023-02-10T14:27:17;27.02;;;10.30;;
46561;SDS011;32289;42.688;23.330;2023-02-10T14:30:59;18.35;;;8.15;;
46561;SDS011;32289;42.688;23.330;2023-02-10T14:34:54;29.25;;;11.73;;
46561;SDS011;32289;42.688;23.330;2023-02-10T14:38:37;35.72;;;11.40;;
46561;SDS011;32289;42.688;23.330;2023-02-10T14:42:17;25.23;;;11.05;;
46561;SDS011;32289;42.688;23.330;2023-02-10T14:45:58;18.63;;;9.68;;
46561;SDS011;32289;42.688;23.330;2023-02-10T14:49:40;23.20;;;10.57;;
46561;SDS011;32289;42.688;23.330;2023-02-10T14:53:21;24.58;;;10.27;;
46561;SDS011;32289;42.688;23.330;2023-02-10T14:57:02;23.02;;;9.85;;
46561;SDS011;32289;42.688;23.330;2023-02-10T15:04:54;27.42;;;11.48;;
46561;SDS011;32289;42.688;23.330;2023-02-10T15:08:42;28.25;;;12.73;;
46561;SDS011;32289;42.688;23.330;2023-02-10T15:12:31;24.70;;;10.20;;
46561;SDS011;32289;42.688;23.330;2023-02-10T15:16:15;27.00;;;10.10;;
46561;SDS011;32289;42.688;23.330;2023-02-10T15:19:58;25.27;;;11.10;;
46561;SDS011;32289;42.688;23.330;2023-02-10T15:23:47;38.08;;;12.30;;
46561;SDS011;32289;42.688;23.330;2023-02-10T15:27:29;23.38;;;11.07;;
46561;SDS011;32289;42.688;23.330;2023-02-10T15:31:24;16.15;;;9.35;;
46561;SDS011;32289;42.688;23.330;2023-02-10T15:35:07;21.15;;;10.18;;
46561;SDS011;32289;42.688;23.330;2023-02-10T15:38:49;22.83;;;10.60;;
46561;SDS011;32289;42.688;23.330;2023-02-10T15:42:36;23.10;;;12.85;;
46561;SDS011;32289;42.688;23.330;2023-02-10T15:46:18;24.63;;;12.15;;
46561;SDS011;32289;42.688;23.330;2023-02-10T15:50:01;28.67;;;14.02;;
46561;SDS011;32289;42.688;23.330;2023-02-10T15:53:42;27.02;;;11.55;;
46561;SDS011;32289;42.688;23.330;2023-02-10T15:57:23;27.63;;;11.90;;
46561;SDS011;32289;42.688;23.330;2023-02-10T16:01:04;28.15;;;13.15;;
46561;SDS011;32289;42.688;23.330;2023-02-10T16:04:46;39.90;;;13.15;;
46561;SDS011;32289;42.688;23.330;2023-02-10T16:08:27;31.88;;;13.55;;
46561;SDS011;32289;42.688;23.330;2023-02-10T16:12:08;33.35;;;13.98;;
46561;SDS011;32289;42.688;23.330;2023-02-10T16:15:49;27.70;;;13.50;;
46561;SDS011;32289;42.688;23.330;2023-02-10T16:19:31;31.55;;;11.57;;
46561;SDS011;32289;42.688;23.330;2023-02-10T16:23:12;23.02;;;11.68;;
46561;SDS011;32289;42.688;23.330;2023-02-10T16:26:55;39.90;;;14.70;;
46561;SDS011;32289;42.688;23.330;2023-02-10T16:30:37;36.97;;;12.77;;
46561;SDS011;32289;42.688;23.330;2023-02-10T16:34:17;33.65;;;11.32;;
46561;SDS011;32289;42.688;23.330;2023-02-10T16:37:58;25.02;;;11.30;;
46561;SDS011;32289;42.688;23.330;2023-02-10T16:41:39;54.03;;;24.77;;
46561;SDS011;32289;42.688;23.330;2023-02-10T16:45:20;49.00;;;14.25;;
46561;SDS011;32289;42.688;23.330;2023-02-10T16:49:02;26.00;;;13.25;;
46561;SDS011;32289;42.688;23.330;2023-02-10T16:52:43;27.25;;;13.18;;
46561;SDS011;32289;42.688;23.330;2023-02-10T16:56:23;35.47;;;14.52;;
46561;SDS011;32289;42.688;23.330;2023-02-10T17:00:04;32.40;;;14.52;;
46561;SDS011;32289;42.688;23.330;2023-02-10T17:03:45;25.35;;;11.02;;
46561;SDS011;32289;42.688;23.330;2023-02-10T17:07:26;24.35;;;12.95;;
46561;SDS011;32289;42.688;23.330;2023-02-10T17:11:07;37.13;;;15.10;;
46561;SDS011;32289;42.688;23.330;2023-02-10T17:14:49;28.38;;;14.25;;
46561;SDS011;32289;42.688;23.330;2023-02-10T17:18:29;34.70;;;13.80;;
46561;SDS011;32289;42.688;23.330;2023-02-10T17:22:10;34.83;;;14.93;;
46561;SDS011;32289;42.688;23.330;2023-02-10T17:25:52;25.73;;;12.68;;
46561;SDS011;32289;42.688;23.330;2023-02-10T17:29:32;26.13;;;13.05;;
46561;SDS011;32289;42.688;23.330;2023-02-10T17:33:23;25.58;;;12.27;;
46561;SDS011;32289;42.688;23.330;2023-02-10T17:37:05;36.38;;;11.60;;
46561;SDS011;32289;42.688;23.330;2023-02-10T17:40:47;38.90;;;14.90;;
46561;SDS011;32289;42.688;23.330;2023-02-10T17:44:29;26.27;;;10.80;;
46561;SDS011;32289;42.688;23.330;2023-02-10T17:48:10;40.13;;;12.73;;
46561;SDS011;32289;42.688;23.330;2023-02-10T17:51:51;35.25;;;11.57;;
46561;SDS011;32289;42.688;23.330;2023-02-10T17:55:32;26.77;;;11.55;;
46561;SDS011;32289;42.688;23.330;2023-02-10T17:59:13;38.72;;;13.70;;
46561;SDS011;32289;42.688;23.330;2023-02-10T18:02:54;29.08;;;13.35;;
46561;SDS011;32289;42.688;23.330;2023-02-10T18:06:34;41.72;;;13.85;;
46561;SDS011;32289;42.688;23.330;2023-02-10T18:10:15;28.45;;;12.40;;
46561;SDS011;32289;42.688;23.330;2023-02-10T18:13:56;25.67;;;12.25;;
46561;SDS011;32289;42.688;23.330;2023-02-10T18:17:38;29.27;;;13.60;;
46561;SDS011;32289;42.688;23.330;2023-02-10T18:21:22;28.58;;;12.65;;
46561;SDS011;32289;42.688;23.330;2023-02-10T18:25:03;45.33;;;13.63;;
46561;SDS011;32289;42.688;23.330;2023-02-10T18:28:44;41.15;;;13.80;;
46561;SDS011;32289;42.688;23.330;2023-02-10T18:32:25;37.75;;;12.65;;
46561;SDS011;32289;42.688;23.330;2023-02-10T18:36:07;37.08;;;13.50;;
46561;SDS011;32289;42.688;23.330;2023-02-10T18:39:49;35.75;;;13.40;;
46561;SDS011;32289;42.688;23.330;2023-02-10T18:43:35;23.05;;;9.10;;
46561;SDS011;32289;42.688;23.330;2023-02-10T18:47:16;30.60;;;12.27;;
46561;SDS011;32289;42.688;23.330;2023-02-10T18:50:56;20.65;;;8.98;;
46561;SDS011;32289;42.688;23.330;2023-02-10T18:54:46;31.98;;;12.05;;
46561;SDS011;32289;42.688;23.330;2023-02-10T18:58:26;19.60;;;10.93;;
46561;SDS011;32289;42.688;23.330;2023-02-10T19:02:08;24.88;;;10.00;;
46561;SDS011;32289;42.688;23.330;2023-02-10T19:05:52;21.23;;;9.85;;
46561;SDS011;32289;42.688;23.330;2023-02-10T19:09:32;20.33;;;8.52;;
46561;SDS011;32289;42.688;23.330;2023-02-10T19:13:13;22.67;;;9.85;;
46561;SDS011;32289;42.688;23.330;2023-02-10T19:16:54;25.73;;;10.88;;
46561;SDS011;32289;42.688;23.330;2023-02-10T19:20:35;30.98;;;11.98;;
46561;SDS011;32289;42.688;23.330;2023-02-10T19:24:16;22.90;;;8.73;;
46561;SDS011;32289;42.688;23.330;2023-02-10T19:27:57;24.35;;;9.27;;
46561;SDS011;32289;42.688;23.330;2023-02-10T19:31:38;21.23;;;9.88;;
46561;SDS011;32289;42.688;23.330;2023-02-10T19:35:19;20.27;;;8.70;;
46561;SDS011;32289;42.688;23.330;2023-02-10T19:38:59;20.73;;;9.55;;
46561;SDS011;32289;42.688;23.330;2023-02-10T19:42:40;20.23;;;8.52;;
46561;SDS011;32289;42.688;23.330;2023-02-10T19:46:21;33.70;;;8.65;;
46561;SDS011;32289;42.688;23.330;2023-02-10T19:50:02;19.70;;;7.65;;
46561;SDS011;32289;42.688;23.330;2023-02-10T19:53:44;17.48;;;7.85;;
46561;SDS011;32289;42.688;23.330;2023-02-10T19:57:25;17.20;;;7.97;;
46561;SDS011;32289;42.688;23.330;2023-02-10T20:01:10;12.65;;;6.13;;
46561;SDS011;32289;42.688;23.330;2023-02-10T20:04:55;13.60;;;6.95;;
46561;SDS011;32289;42.688;23.330;2023-02-10T20:08:36;10.88;;;7.43;;
46561;SDS011;32289;42.688;23.330;2023-02-10T20:12:17;17.38;;;6.93;;
46561;SDS011;32289;42.688;23.330;2023-02-10T20:15:57;13.85;;;6.65;;
46561;SDS011;32289;42.688;23.330;2023-02-10T20:19:38;15.13;;;5.32;;
46561;SDS011;32289;42.688;23.330;2023-02-10T20:23:19;16.48;;;6.20;;
46561;SDS011;32289;42.688;23.330;2023-02-10T20:27:00;20.13;;;8.07;;
46561;SDS011;32289;42.688;23.330;2023-02-10T20:30:43;23.17;;;7.60;;
46561;SDS011;32289;42.688;23.330;2023-02-10T20:34:24;16.45;;;6.15;;
46561;SDS011;32289;42.688;23.330;2023-02-10T20:38:05;11.35;;;5.65;;
46561;SDS011;32289;42.688;23.330;2023-02-10T20:41:46;15.27;;;6.10;;
46561;SDS011;32289;42.688;23.330;2023-02-10T20:45:26;11.55;;;7.63;;
46561;SDS011;32289;42.688;23.330;2023-02-10T20:49:07;15.85;;;6.70;;
46561;SDS011;32289;42.688;23.330;2023-02-10T20:52:48;16.80;;;7.40;;
46561;SDS011;32289;42.688;23.330;2023-02-10T20:56:30;17.33;;;6.57;;
46561;SDS011;32289;42.688;23.330;2023-02-10T21:00:11;15.98;;;6.97;;
46561;SDS011;32289;42.688;23.330;2023-02-10T21:03:53;18.77;;;8.07;;
46561;SDS011;32289;42.688;23.330;2023-02-10T21:07:35;15.35;;;6.32;;
46561;SDS011;32289;42.688;23.330;2023-02-10T21:11:17;19.85;;;8.57;;
46561;SDS011;32289;42.688;23.330;2023-02-10T21:15:00;16.67;;;6.97;;
46561;SDS011;32289;42.688;23.330;2023-02-10T21:18:41;14.75;;;6.47;;
46561;SDS011;32289;42.688;23.330;2023-02-10T21:22:22;18.65;;;7.70;;
46561;SDS011;32289;42.688;23.330;2023-02-10T21:26:03;20.75;;;7.07;;
46561;SDS011;32289;42.688;23.330;2023-02-10T21:29:44;17.05;;;7.75;;
46561;SDS011;32289;42.688;23.330;2023-02-10T21:33:26;14.85;;;7.75;;
46561;SDS011;32289;42.688;23.330;2023-02-10T21:37:07;14.65;;;6.15;;
46561;SDS011;32289;42.688;23.330;2023-02-10T21:40:48;14.00;;;7.15;;
46561;SDS011;32289;42.688;23.330;2023-02-10T21:44:29;15.25;;;6.80;;
46561;SDS011;32289;42.688;23.330;2023-02-10T21:48:13;12.10;;;6.22;;
46561;SDS011;32289;42.688;23.330;2023-02-10T21:51:54;21.38;;;8.70;;
46561;SDS011;32289;42.688;23.330;2023-02-10T21:55:35;14.13;;;7.18;;
46561;SDS011;32289;42.688;23.330;2023-02-10T21:59:16;15.68;;;5.97;;
46561;SDS011;32289;42.688;23.330;2023-02-10T22:02:57;23.50;;;8.45;;
46561;SDS011;32289;42.688;23.330;2023-02-10T22:06:38;22.50;;;7.80;;
46561;SDS011;32289;42.688;23.330;2023-02-10T22:10:22;21.80;;;8.27;;
46561;SDS011;32289;42.688;23.330;2023-02-10T22:14:03;11.40;;;5.70;;
46561;SDS011;32289;42.688;23.330;2023-02-10T22:17:44;14.80;;;7.78;;
46561;SDS011;32289;42.688;23.330;2023-02-10T22:21:25;13.93;;;6.30;;
46561;SDS011;32289;42.688;23.330;2023-02-10T22:25:06;15.52;;;7.70;;
46561;SDS011;32289;42.688;23.330;2023-02-10T22:28:47;19.38;;;6.72;;
46561;SDS011;32289;42.688;23.330;2023-02-10T22:32:28;13.77;;;5.72;;
46561;SDS011;32289;42.688;23.330;2023-02-10T22:36:09;9.77;;;5.55;;
46561;SDS011;32289;42.688;23.330;2023-02-10T22:45:08;12.35;;;5.65;;
46561;SDS011;32289;42.688;23.330;2023-02-10T22:49:30;12.02;;;5.22;;
46561;SDS011;32289;42.688;23.330;2023-02-10T22:53:10;9.82;;;6.10;;
46561;SDS011;32289;42.688;23.330;2023-02-10T22:56:52;11.73;;;6.65;;
46561;SDS011;32289;42.688;23.330;2023-02-10T23:00:39;18.67;;;6.80;;
46561;SDS011;32289;42.688;23.330;2023-02-10T23:04:28;12.55;;;6.53;;
46561;SDS011;32289;42.688;23.330;2023-02-10T23:08:09;12.80;;;4.70;;
46561;SDS011;32289;42.688;23.330;2023-02-10T23:11:58;11.15;;;6.15;;
46561;SDS011;32289;42.688;23.330;2023-02-10T23:15:53;10.05;;;5.85;;
46561;SDS011;32289;42.688;23.330;2023-02-10T23:19:35;13.55;;;4.40;;
46561;SDS011;32289;42.688;23.330;2023-02-10T23:23:17;14.68;;;7.15;;
46561;SDS011;32289;42.688;23.330;2023-02-10T23:26:58;17.42;;;3.97;;
46561;SDS011;32289;42.688;23.330;2023-02-10T23:34:40;14.57;;;5.97;;
46561;SDS011;32289;42.688;23.330;2023-02-10T23:38:20;8.35;;;4.72;;
46561;SDS011;32289;42.688;23.330;2023-02-10T23:42:01;9.00;;;4.95;;
46561;SDS011;32289;42.688;23.330;2023-02-10T23:46:00;6.35;;;5.28;;
46561;SDS011;32289;42.688;23.330;2023-02-10T23:54:24;20.20;;;6.18;;
46561;SDS011;32289;42.688;23.330;2023-02-10T23:58:13;15.70;;;5.63;;
